Time;durP1;ratioP1;P1;durP2;ratioP2;P2;SDS_P1;SDS_P2;PMS_P1;PMS_P2;Temp;Humidity;BMP_temperature;BMP_pressure;BME280_temperature;BME280_humidity;BME280_pressure;Samples;Min_cycle;Max_cycle;Signal;HPM_P1;HPM_P2
2021/05/04 00:02:09;;;;;;;12.15;9.57;;;3.20;99.90;;;;;;5068973;28;20049;-77
2021/05/04 00:04:36;;;;;;;10.45;8.40;;;3.30;99.90;;;;;;5070053;28;20059;-76
2021/05/04 00:07:04;;;;;;;10.52;8.63;;;3.20;99.90;;;;;;5069083;28;20037;-76
2021/05/04 00:09:31;;;;;;;11.77;7.90;;;3.00;99.90;;;;;;5069507;28;20051;-76
2021/05/04 00:11:58;;;;;;;8.70;7.90;;;2.90;99.90;;;;;;5070136;28;20040;-76
2021/05/04 00:14:27;;;;;;;9.85;8.57;;;2.70;99.90;;;;;;5069337;28;20048;-76
2021/05/04 00:16:55;;;;;;;14.07;8.52;;;2.40;99.90;;;;;;5070563;28;20052;-77
2021/05/04 00:19:22;;;;;;;11.35;9.80;;;2.20;99.90;;;;;;5069545;28;20057;-77
2021/05/04 00:21:50;;;;;;;14.73;10.02;;;2.20;99.90;;;;;;5070592;28;20060;-76
2021/05/04 00:24:17;;;;;;;10.55;8.63;;;2.20;99.90;;;;;;5070103;28;20509;-76
2021/05/04 00:26:45;;;;;;;12.27;10.98;;;2.10;99.90;;;;;;5069616;28;20040;-76
2021/05/04 00:29:12;;;;;;;9.80;8.18;;;2.20;99.90;;;;;;5070681;28;20051;-76
2021/05/04 00:31:39;;;;;;;12.43;10.02;;;2.30;99.90;;;;;;5069277;28;20048;-78
2021/05/04 00:34:07;;;;;;;12.52;8.98;;;2.30;99.90;;;;;;5070348;28;20060;-78
2021/05/04 00:36:34;;;;;;;9.43;8.52;;;2.40;99.90;;;;;;5051928;28;20051;-78
2021/05/04 00:39:02;;;;;;;11.70;8.57;;;2.40;99.90;;;;;;5052050;28;20033;-77
2021/05/04 00:41:29;;;;;;;11.82;8.63;;;2.40;99.90;;;;;;5052365;28;20059;-78
2021/05/04 00:43:57;;;;;;;8.98;8.07;;;2.40;99.90;;;;;;5069994;28;20508;-77
2021/05/04 00:46:24;;;;;;;11.30;9.80;;;2.40;99.90;;;;;;5069683;28;20052;-78
2021/05/04 00:48:52;;;;;;;8.73;7.50;;;2.30;99.90;;;;;;5069974;28;20048;-77
2021/05/04 00:51:21;;;;;;;8.88;7.93;;;2.20;99.90;;;;;;5050819;28;20489;-78
2021/05/04 00:53:48;;;;;;;14.70;10.57;;;2.20;99.90;;;;;;5070245;28;20489;-78
2021/05/04 00:56:18;;;;;;;11.00;8.48;;;2.30;99.90;;;;;;5069547;28;20040;-77
2021/05/04 00:58:48;;;;;;;10.95;9.38;;;2.30;99.90;;;;;;5058320;28;20517;-77
2021/05/04 01:01:15;;;;;;;12.82;9.48;;;2.30;99.90;;;;;;5068883;28;20405;-77
2021/05/04 01:03:43;;;;;;;10.75;8.27;;;2.30;99.90;;;;;;5069943;28;20037;-78
2021/05/04 01:06:11;;;;;;;11.75;8.07;;;2.30;99.90;;;;;;5069297;28;20061;-78
2021/05/04 01:08:38;;;;;;;10.57;8.57;;;2.20;99.90;;;;;;5069722;28;20059;-78
2021/05/04 01:11:05;;;;;;;8.98;8.07;;;2.20;99.90;;;;;;5052054;28;20052;-77
2021/05/04 01:13:33;;;;;;;8.32;7.53;;;2.20;99.90;;;;;;5070244;28;20428;-78
2021/05/04 01:16:02;;;;;;;10.27;8.77;;;2.20;99.90;;;;;;5051450;28;20052;-78
2021/05/04 01:18:29;;;;;;;10.52;8.63;;;2.10;99.90;;;;;;5069552;28;20481;-77
2021/05/04 01:20:56;;;;;;;10.00;8.32;;;2.00;99.90;;;;;;5069027;28;20132;-78
2021/05/04 01:23:24;;;;;;;12.10;10.82;;;1.90;99.90;;;;;;5069492;28;20520;-78
2021/05/04 01:25:51;;;;;;;8.95;8.00;;;1.90;99.90;;;;;;5072848;28;20059;-78
2021/05/04 01:28:19;;;;;;;10.35;9.07;;;1.90;99.90;;;;;;5055076;28;20037;-78
2021/05/04 01:30:46;;;;;;;14.90;8.02;;;1.80;99.90;;;;;;5072643;28;20044;-78
2021/05/04 01:33:13;;;;;;;8.48;7.30;;;1.80;99.90;;;;;;5061265;28;20049;-78
2021/05/04 01:35:41;;;;;;;10.93;8.90;;;1.80;99.90;;;;;;5061246;28;20060;-78
2021/05/04 01:38:09;;;;;;;10.50;9.48;;;1.80;99.90;;;;;;5055528;28;20048;-78
2021/05/04 01:40:36;;;;;;;9.82;8.00;;;1.60;99.90;;;;;;5072783;28;20529;-78
2021/05/04 01:43:04;;;;;;;11.75;10.30;;;1.70;99.90;;;;;;5072977;28;20055;-78
2021/05/04 01:45:31;;;;;;;10.15;8.77;;;1.60;99.90;;;;;;5073423;28;20048;-79
2021/05/04 01:47:59;;;;;;;13.45;8.90;;;1.60;99.90;;;;;;5072391;28;20436;-78
2021/05/04 01:50:26;;;;;;;9.15;8.07;;;1.60;99.90;;;;;;5072471;28;20075;-77
2021/05/04 01:52:54;;;;;;;12.48;10.23;;;1.50;99.90;;;;;;5072304;28;20056;-78
2021/05/04 01:55:21;;;;;;;10.75;9.00;;;1.50;99.90;;;;;;5072527;28;20088;-78
2021/05/04 01:57:49;;;;;;;10.43;8.32;;;1.50;99.90;;;;;;5072840;28;20091;-78
2021/05/04 02:00:16;;;;;;;10.75;9.25;;;1.50;99.90;;;;;;5072354;28;20040;-78
2021/05/04 02:02:44;;;;;;;12.55;10.60;;;1.40;99.90;;;;;;5071889;28;20060;-78
2021/05/04 02:05:12;;;;;;;12.50;9.18;;;1.40;99.90;;;;;;5054956;28;20059;-78
2021/05/04 02:07:40;;;;;;;13.48;9.90;;;1.40;99.90;;;;;;5072465;28;20040;-78
2021/05/04 02:10:08;;;;;;;11.77;9.32;;;1.40;99.90;;;;;;5072862;28;20057;-78
2021/05/04 02:12:35;;;;;;;12.95;11.65;;;1.30;99.90;;;;;;5072398;28;20202;-78
2021/05/04 02:15:03;;;;;;;12.20;9.15;;;1.20;99.90;;;;;;5053674;28;20120;-78
2021/05/04 02:17:30;;;;;;;12.77;10.60;;;1.20;99.90;;;;;;5072644;28;20405;-78
2021/05/04 02:19:57;;;;;;;16.13;10.48;;;1.30;99.90;;;;;;5062986;28;20049;-78
2021/05/04 02:22:32;;;;;;;11.38;7.88;;;1.40;99.90;;;;;;5052340;28;20053;-78
2021/05/04 02:25:01;;;;;;;12.90;8.13;;;1.40;99.90;;;;;;5060670;28;20048;-78
2021/05/04 02:27:28;;;;;;;9.75;8.77;;;1.20;99.90;;;;;;5071737;28;20401;-78
2021/05/04 02:29:55;;;;;;;9.98;8.98;;;1.30;99.90;;;;;;5054103;28;20060;-78
2021/05/04 02:32:23;;;;;;;13.07;9.70;;;1.20;99.90;;;;;;5071662;28;20036;-78
2021/05/04 02:34:50;;;;;;;6.57;5.53;;;0.90;99.90;;;;;;5071462;28;20052;-77
2021/05/04 02:37:18;;;;;;;11.50;8.75;;;0.90;99.90;;;;;;5071913;28;20053;-78
2021/05/04 02:39:46;;;;;;;11.55;8.57;;;1.20;99.90;;;;;;5070576;28;20386;-78
2021/05/04 02:42:13;;;;;;;10.05;9.05;;;1.20;99.90;;;;;;5071937;28;20063;-78
2021/05/04 02:44:40;;;;;;;10.40;8.35;;;1.00;99.90;;;;;;5070195;28;20059;-77
2021/05/04 02:47:07;;;;;;;10.75;9.13;;;0.80;99.90;;;;;;5071569;28;20036;-77
2021/05/04 02:49:36;;;;;;;11.30;10.05;;;0.90;99.90;;;;;;5071649;28;20520;-77
2021/05/04 02:52:04;;;;;;;9.98;8.10;;;1.00;99.90;;;;;;5071714;28;20393;-78
2021/05/04 02:54:31;;;;;;;10.55;8.23;;;1.00;99.90;;;;;;5071361;28;20417;-77
2021/05/04 02:56:59;;;;;;;9.02;7.90;;;1.20;99.90;;;;;;5071585;28;20051;-78
2021/05/04 02:59:26;;;;;;;8.88;7.38;;;1.20;99.90;;;;;;5071508;28;20064;-78
2021/05/04 03:01:53;;;;;;;9.45;8.50;;;1.30;99.90;;;;;;5070531;28;20056;-78
2021/05/04 03:04:21;;;;;;;9.80;8.80;;;1.20;99.90;;;;;;5070993;28;20055;-78
2021/05/04 03:06:48;;;;;;;9.68;8.55;;;1.20;99.90;;;;;;5070540;28;20400;-77
2021/05/04 03:09:15;;;;;;;8.85;7.68;;;1.00;99.90;;;;;;5070747;28;20405;-78
2021/05/04 03:11:43;;;;;;;9.88;8.88;;;0.90;99.90;;;;;;5070088;28;20051;-77
2021/05/04 03:14:10;;;;;;;7.85;7.20;;;0.90;99.90;;;;;;5071817;28;20053;-78
2021/05/04 03:16:38;;;;;;;13.88;9.48;;;0.80;99.90;;;;;;5070956;28;20051;-77
2021/05/04 03:19:05;;;;;;;14.13;9.30;;;0.80;99.90;;;;;;5070475;28;20048;-77
2021/05/04 03:21:33;;;;;;;15.82;8.23;;;0.90;99.90;;;;;;5071383;28;20497;-77
2021/05/04 03:24:00;;;;;;;11.15;10.05;;;0.90;99.90;;;;;;5070260;28;20052;-77
2021/05/04 03:26:27;;;;;;;9.20;8.20;;;0.90;99.90;;;;;;5070699;28;20519;-77
2021/05/04 03:28:55;;;;;;;9.20;7.85;;;0.90;99.90;;;;;;5053674;28;20064;-77
2021/05/04 03:31:22;;;;;;;10.27;8.77;;;0.90;99.90;;;;;;5069939;28;20044;-77
2021/05/04 03:33:50;;;;;;;9.48;7.72;;;0.90;99.90;;;;;;5054245;28;20053;-77
2021/05/04 03:36:17;;;;;;;9.27;8.13;;;1.00;99.90;;;;;;5063347;28;20040;-77
2021/05/04 03:38:45;;;;;;;8.70;7.85;;;0.90;99.90;;;;;;5070781;28;20383;-77
2021/05/04 03:41:12;;;;;;;9.10;8.18;;;0.90;99.90;;;;;;5071054;28;20048;-76
2021/05/04 03:43:39;;;;;;;9.55;8.43;;;1.00;99.90;;;;;;5070799;28;20040;-77
2021/05/04 03:46:07;;;;;;;11.38;8.32;;;1.20;99.90;;;;;;5071008;28;20056;-76
2021/05/04 03:48:34;;;;;;;9.38;7.75;;;1.20;99.90;;;;;;5069610;28;20501;-77
2021/05/04 03:51:02;;;;;;;8.45;6.97;;;1.30;99.90;;;;;;5068639;28;20056;-84
2021/05/04 03:53:31;;;;;;;8.48;7.70;;;1.40;99.90;;;;;;5036615;28;20053;-76
2021/05/04 03:55:58;;;;;;;8.45;7.43;;;1.50;99.90;;;;;;5052410;28;20051;-77
2021/05/04 03:58:25;;;;;;;7.95;7.25;;;1.60;99.90;;;;;;5070241;28;20052;-76
2021/05/04 04:00:53;;;;;;;8.57;7.35;;;1.60;99.90;;;;;;5070567;28;20075;-76
2021/05/04 04:03:20;;;;;;;9.18;6.53;;;1.50;99.90;;;;;;5070436;28;20051;-77
2021/05/04 04:05:48;;;;;;;5.22;4.72;;;1.60;99.90;;;;;;5070066;28;20064;-76
2021/05/04 04:08:15;;;;;;;6.85;6.05;;;1.70;99.90;;;;;;5070568;28;20165;-77
2021/05/04 04:10:43;;;;;;;6.72;6.00;;;1.70;99.90;;;;;;5069456;28;20041;-76
2021/05/04 04:13:10;;;;;;;8.52;7.00;;;1.80;99.90;;;;;;5069627;28;20063;-76
2021/05/04 04:15:37;;;;;;;8.38;5.53;;;1.90;99.90;;;;;;5069968;28;20048;-77
2021/05/04 04:18:05;;;;;;;5.70;5.15;;;2.10;99.90;;;;;;5070475;28;20477;-77
2021/05/04 04:20:33;;;;;;;11.65;6.95;;;2.20;99.90;;;;;;5055995;28;20041;-77
2021/05/04 04:23:00;;;;;;;5.47;5.00;;;2.20;99.90;;;;;;5050249;28;20045;-77
2021/05/04 04:25:27;;;;;;;6.70;6.20;;;2.40;99.90;;;;;;5062634;28;20513;-76
2021/05/04 04:27:55;;;;;;;5.47;4.97;;;2.40;99.90;;;;;;5069813;28;20056;-77
2021/05/04 04:30:24;;;;;;;6.22;5.30;;;2.60;99.90;;;;;;5070027;28;20405;-76
2021/05/04 04:32:51;;;;;;;4.97;4.63;;;2.50;99.90;;;;;;5069781;28;20060;-77
2021/05/04 04:35:19;;;;;;;7.00;6.38;;;2.60;99.90;;;;;;5069399;28;20041;-77
2021/05/04 04:37:46;;;;;;;6.57;5.40;;;2.80;99.90;;;;;;5070649;28;20072;-77
2021/05/04 04:40:14;;;;;;;5.35;4.85;;;2.90;99.90;;;;;;5070061;28;20059;-77
2021/05/04 04:42:42;;;;;;;9.00;5.93;;;3.00;99.90;;;;;;5069917;28;20044;-77
2021/05/04 04:45:10;;;;;;;6.00;5.47;;;3.10;99.90;;;;;;5069010;28;20382;-77
2021/05/04 04:47:40;;;;;;;5.22;4.75;;;3.20;99.90;;;;;;5068532;28;20041;-77
2021/05/04 04:50:08;;;;;;;6.90;6.30;;;3.40;99.90;;;;;;5069691;28;20516;-77
2021/05/04 04:52:36;;;;;;;5.10;4.60;;;3.70;99.90;;;;;;5070022;28;20043;-77
2021/05/04 04:55:05;;;;;;;3.90;3.55;;;4.00;99.90;;;;;;5070030;28;20040;-77
2021/05/04 04:57:33;;;;;;;6.22;4.53;;;4.40;99.90;;;;;;5062212;28;20405;-77
2021/05/04 05:00:00;;;;;;;4.68;4.15;;;4.80;99.90;;;;;;5050973;28;20045;-77
2021/05/04 05:02:27;;;;;;;5.78;4.95;;;5.20;99.90;;;;;;5053596;28;20068;-77
2021/05/04 05:04:55;;;;;;;4.60;4.20;;;5.50;99.50;;;;;;5054196;28;20529;-77
2021/05/04 05:07:22;;;;;;;3.50;3.30;;;5.70;98.80;;;;;;5052896;28;20049;-77
2021/05/04 05:09:50;;;;;;;4.45;4.03;;;5.80;97.70;;;;;;5054211;28;20529;-77
2021/05/04 05:12:17;;;;;;;5.55;5.05;;;5.80;97.80;;;;;;5053159;28;20048;-77
2021/05/04 05:14:44;;;;;;;5.75;3.72;;;5.90;98.60;;;;;;5035669;28;20484;-77
2021/05/04 05:17:12;;;;;;;4.72;4.10;;;5.90;98.20;;;;;;5053371;28;20052;-78
2021/05/04 05:19:41;;;;;;;5.32;4.93;;;6.20;98.50;;;;;;5052141;28;20045;-77
2021/05/04 05:22:09;;;;;;;5.93;4.32;;;6.00;96.40;;;;;;5054064;28;20049;-77
2021/05/04 05:24:37;;;;;;;6.25;5.75;;;6.10;97.90;;;;;;5058061;28;20036;-78
2021/05/04 05:27:05;;;;;;;4.75;4.38;;;6.50;98.40;;;;;;5073376;28;20036;-78
2021/05/04 05:29:34;;;;;;;4.70;4.30;;;6.80;95.80;;;;;;5073543;28;20056;-78
2021/05/04 05:32:03;;;;;;;4.93;4.30;;;7.10;95.00;;;;;;5052367;28;20044;-78
2021/05/04 05:34:30;;;;;;;5.85;5.35;;;7.20;94.70;;;;;;5052818;28;20056;-78
2021/05/04 05:36:57;;;;;;;4.60;4.15;;;7.40;94.40;;;;;;5038515;28;20400;-78
2021/05/04 05:39:25;;;;;;;5.30;4.82;;;7.70;94.10;;;;;;5072903;28;20044;-79
2021/05/04 05:41:53;;;;;;;5.38;4.88;;;8.20;94.00;;;;;;5055525;28;20049;-79
2021/05/04 05:44:20;;;;;;;4.68;4.28;;;8.40;92.30;;;;;;5073117;28;20052;-79
2021/05/04 05:46:51;;;;;;;5.50;5.00;;;8.50;94.30;;;;;;5049319;28;20044;-79
2021/05/04 05:49:19;;;;;;;4.07;3.78;;;8.90;93.20;;;;;;5069463;28;20068;-79
2021/05/04 05:51:46;;;;;;;3.60;3.38;;;9.20;91.30;;;;;;5071069;28;20040;-79
2021/05/04 05:54:14;;;;;;;4.78;4.10;;;9.10;91.70;;;;;;5055048;28;20059;-79
2021/05/04 05:56:41;;;;;;;5.88;4.75;;;9.40;91.90;;;;;;5071870;28;20049;-78
2021/05/04 05:59:09;;;;;;;4.72;4.15;;;9.60;90.10;;;;;;5072617;28;20517;-78
2021/05/04 06:01:36;;;;;;;4.15;3.80;;;9.70;91.30;;;;;;5071819;28;20052;-78
2021/05/04 06:04:04;;;;;;;3.88;3.58;;;10.00;88.90;;;;;;5071567;28;20044;-78
2021/05/04 06:06:31;;;;;;;4.05;3.13;;;10.10;89.70;;;;;;5067111;28;20052;-79
2021/05/04 06:09:01;;;;;;;3.10;2.90;;;10.50;86.80;;;;;;5067921;28;20052;-78
2021/05/04 06:11:28;;;;;;;4.38;2.83;;;10.40;88.10;;;;;;5069691;28;20051;-80
2021/05/04 06:13:57;;;;;;;3.30;3.10;;;10.50;85.00;;;;;;5071195;28;20429;-81
2021/05/04 06:16:25;;;;;;;3.42;3.13;;;11.00;85.60;;;;;;5069129;28;20047;-81
2021/05/04 06:18:55;;;;;;;3.00;2.80;;;11.10;88.70;;;;;;5070816;28;20485;-82
2021/05/04 06:21:28;;;;;;;3.78;2.40;;;11.60;85.20;;;;;;5050954;28;20048;-81
2021/05/04 06:23:58;;;;;;;2.97;2.78;;;12.20;81.10;;;;;;5058694;28;20033;-83
2021/05/04 06:26:34;;;;;;;2.90;2.70;;;12.50;78.60;;;;;;5062948;28;20049;-83
2021/05/04 06:29:10;;;;;;;3.40;3.10;;;13.00;78.40;;;;;;5037013;28;20811;-83
2021/05/04 06:31:40;;;;;;;2.92;2.72;;;14.00;78.60;;;;;;5051563;28;20040;-82
2021/05/04 06:34:13;;;;;;;4.15;2.53;;;14.30;74.70;;;;;;5053944;28;20413;-82
2021/05/04 06:36:44;;;;;;;6.45;2.97;;;14.10;75.10;;;;;;5070758;28;20055;-83
2021/05/04 06:39:21;;;;;;;5.60;3.30;;;13.80;77.80;;;;;;5036810;28;20397;-84
2021/05/04 06:41:49;;;;;;;3.70;3.40;;;13.30;77.50;;;;;;5052516;28;20044;-83
2021/05/04 06:44:20;;;;;;;2.97;2.78;;;13.10;78.70;;;;;;5070782;28;20044;-82
2021/05/04 06:46:50;;;;;;;4.18;3.22;;;12.60;80.20;;;;;;5052578;28;20040;-80
2021/05/04 06:49:22;;;;;;;4.05;3.65;;;12.20;81.70;;;;;;5053298;28;20048;-80
2021/05/04 06:51:50;;;;;;;4.30;3.67;;;11.80;81.50;;;;;;5070105;28;20060;-82
2021/05/04 06:54:18;;;;;;;3.30;3.00;;;11.60;87.30;;;;;;5063479;28;20057;-81
2021/05/04 06:56:46;;;;;;;3.92;3.40;;;11.90;85.60;;;;;;5069425;28;20052;-82
2021/05/04 06:59:16;;;;;;;4.10;3.63;;;12.20;86.00;;;;;;5049891;28;20814;-83
2021/05/04 07:01:46;;;;;;;4.35;3.30;;;12.50;85.60;;;;;;5066428;28;20424;-84
2021/05/04 07:04:18;;;;;;;3.28;2.97;;;12.80;84.20;;;;;;5069031;28;20504;-84
2021/05/04 07:06:46;;;;;;;3.90;3.50;;;13.30;82.10;;;;;;5069336;28;20048;-80
2021/05/04 07:09:14;;;;;;;3.92;3.63;;;13.20;84.70;;;;;;5071416;28;20071;-81
2021/05/04 07:11:44;;;;;;;5.35;3.97;;;13.20;83.70;;;;;;5068358;22;20061;-81
2021/05/04 07:14:12;;;;;;;4.00;3.58;;;13.30;84.30;;;;;;5011230;28;20064;-81
2021/05/04 07:16:40;;;;;;;4.57;4.15;;;14.20;80.00;;;;;;5010530;28;20069;-80
2021/05/04 07:19:08;;;;;;;3.45;3.13;;;14.50;79.30;;;;;;5010954;28;20042;-78
2021/05/04 07:21:36;;;;;;;3.97;3.67;;;14.00;80.00;;;;;;5009211;28;20086;-78
2021/05/04 07:24:16;;;;;;;3.40;3.10;;;13.90;79.90;;;;;;5006328;28;20046;-77
2021/05/04 07:26:43;;;;;;;6.47;3.80;;;14.30;79.80;;;;;;5008774;28;20049;-77
2021/05/04 07:29:11;;;;;;;3.45;3.25;;;14.50;80.00;;;;;;5008204;28;20406;-77
2021/05/04 07:31:40;;;;;;;3.45;3.10;;;15.00;78.80;;;;;;5009913;28;20042;-77
2021/05/04 07:34:23;;;;;;;3.60;3.30;;;14.90;80.00;;;;;;4990674;28;20616;-78
2021/05/04 07:36:53;;;;;;;5.43;3.28;;;15.00;79.90;;;;;;5009319;28;20057;-79
2021/05/04 07:39:26;;;;;;;3.92;3.10;;;14.60;77.80;;;;;;5008771;28;20664;-79
2021/05/04 07:41:54;;;;;;;3.20;3.00;;;14.60;80.90;;;;;;5010659;28;20053;-78
2021/05/04 07:44:23;;;;;;;5.15;3.30;;;15.00;79.10;;;;;;5008557;28;20044;-79
2021/05/04 07:46:50;;;;;;;5.80;3.42;;;15.20;76.90;;;;;;4990611;28;20053;-77
2021/05/04 07:49:30;;;;;;;2.80;2.60;;;15.60;76.70;;;;;;4978648;28;20058;-77
2021/05/04 07:51:58;;;;;;;3.03;2.38;;;15.60;72.60;;;;;;5009761;28;20508;-76
2021/05/04 07:54:25;;;;;;;3.67;3.33;;;15.30;76.40;;;;;;5007321;28;20503;-77
2021/05/04 07:56:53;;;;;;;9.73;3.97;;;15.30;75.30;;;;;;5006742;28;20053;-78
2021/05/04 07:59:20;;;;;;;3.45;2.45;;;16.00;75.60;;;;;;5006308;28;20574;-78
2021/05/04 08:01:47;;;;;;;3.33;2.90;;;17.10;72.30;;;;;;5009892;28;20570;-82
2021/05/04 08:04:15;;;;;;;3.00;2.72;;;16.80;69.80;;;;;;4989560;28;20049;-80
2021/05/04 08:06:42;;;;;;;2.70;2.50;;;15.60;72.90;;;;;;5007601;28;20038;-79
2021/05/04 08:09:10;;;;;;;2.38;2.17;;;15.40;73.20;;;;;;4991379;28;20057;-78
2021/05/04 08:11:37;;;;;;;2.45;2.28;;;15.10;69.30;;;;;;5006804;28;20065;-76
2021/05/04 08:14:06;;;;;;;2.80;2.47;;;15.10;70.90;;;;;;5005924;28;20046;-77
2021/05/04 08:16:34;;;;;;;2.80;2.25;;;16.00;67.90;;;;;;4991518;28;20048;-77
2021/05/04 08:19:03;;;;;;;2.38;2.17;;;16.50;66.20;;;;;;5009372;28;20041;-77
2021/05/04 08:21:35;;;;;;;1.83;1.73;;;16.50;56.70;;;;;;4992339;28;20407;-76
2021/05/04 08:24:05;;;;;;;3.17;2.80;;;17.40;59.90;;;;;;5009209;28;20041;-77
2021/05/04 08:26:34;;;;;;;3.67;1.77;;;18.50;62.40;;;;;;5008653;28;20053;-78
2021/05/04 08:29:02;;;;;;;3.30;2.30;;;19.40;50.90;;;;;;5015663;28;20041;-76
2021/05/04 08:31:30;;;;;;;2.13;1.63;;;18.70;57.80;;;;;;5008770;28;20046;-78
2021/05/04 08:33:57;;;;;;;3.60;1.88;;;19.00;52.80;;;;;;5010937;28;20088;-76
2021/05/04 08:36:25;;;;;;;2.10;1.60;;;19.30;44.70;;;;;;5013360;28;20057;-77
2021/05/04 08:38:54;;;;;;;1.90;1.58;;;18.90;49.90;;;;;;5013827;28;20034;-76
2021/05/04 08:41:22;;;;;;;2.55;1.75;;;17.60;50.80;;;;;;5013946;28;20045;-79
2021/05/04 08:43:50;;;;;;;2.13;1.70;;;16.20;53.60;;;;;;4995695;28;20041;-78
2021/05/04 08:46:20;;;;;;;6.28;2.15;;;15.50;57.30;;;;;;5014060;28;20077;-80
2021/05/04 08:48:48;;;;;;;1.55;1.45;;;15.60;54.80;;;;;;5013696;28;20045;-79
2021/05/04 08:51:17;;;;;;;2.25;1.52;;;15.90;66.50;;;;;;4995985;28;20046;-78
2021/05/04 08:54:03;;;;;;;1.55;1.40;;;16.10;64.20;;;;;;5014647;28;20058;-78
2021/05/04 08:56:30;;;;;;;1.83;1.48;;;16.30;59.00;;;;;;4993497;28;20042;-79
2021/05/04 08:58:59;;;;;;;2.08;1.50;;;16.30;55.20;;;;;;5010772;28;20045;-78
2021/05/04 09:01:26;;;;;;;1.50;1.40;;;16.20;57.50;;;;;;5012974;28;20054;-78
2021/05/04 09:04:00;;;;;;;2.00;1.52;;;16.00;53.00;;;;;;5012978;28;20050;-77
2021/05/04 09:06:41;;;;;;;2.08;1.67;;;15.80;63.50;;;;;;5011045;28;20041;-78
2021/05/04 09:14:53;;;;;;;1.58;1.40;;;15.90;51.80;;;;;;4993808;28;20054;-76
2021/05/04 09:17:31;;;;;;;1.92;1.80;;;16.00;52.10;;;;;;5008405;28;20525;-73
2021/05/04 09:23:05;;;;;;;1.50;1.40;;;15.60;55.70;;;;;;4992791;28;20037;-77
2021/05/04 09:25:37;;;;;;;1.83;1.73;;;15.50;53.80;;;;;;5011510;28;20053;-79
2021/05/04 09:28:07;;;;;;;2.30;2.05;;;15.20;51.20;;;;;;5010852;28;20486;-78
2021/05/04 09:30:34;;;;;;;1.80;1.70;;;15.30;58.50;;;;;;5011412;28;20421;-78
2021/05/04 09:33:15;;;;;;;1.70;1.60;;;15.30;53.00;;;;;;4991834;28;20422;-77
2021/05/04 09:35:43;;;;;;;6.35;2.38;;;15.10;64.80;;;;;;4994685;28;20131;-76
2021/05/04 09:38:15;;;;;;;2.28;2.08;;;15.30;57.90;;;;;;5013089;28;20058;-79
2021/05/04 09:40:47;;;;;;;2.45;1.85;;;15.20;53.00;;;;;;4993702;28;20034;-77
2021/05/04 09:43:18;;;;;;;1.77;1.67;;;15.00;58.20;;;;;;5011836;28;20041;-77
2021/05/04 09:45:58;;;;;;;2.08;1.88;;;15.10;51.80;;;;;;5011105;28;20046;-77
2021/05/04 09:48:38;;;;;;;2.28;2.08;;;14.90;50.90;;;;;;5009413;28;20038;-77
2021/05/04 09:51:16;;;;;;;2.35;2.13;;;15.00;59.20;;;;;;4991289;28;20046;-77
2021/05/04 09:56:17;;;;;;;1.63;1.52;;;15.40;55.70;;;;;;4994305;28;20478;-77
2021/05/04 09:58:48;;;;;;;4.05;1.95;;;15.40;51.40;;;;;;5011582;28;20046;-78
2021/05/04 10:01:17;;;;;;;2.00;1.45;;;15.40;55.30;;;;;;5010987;28;20029;-76
2021/05/04 10:03:47;;;;;;;2.88;1.60;;;15.30;49.10;;;;;;5011369;28;20054;-76
2021/05/04 10:06:17;;;;;;;1.65;1.55;;;15.40;60.30;;;;;;5012151;28;20066;-77
2021/05/04 10:08:46;;;;;;;2.05;1.83;;;16.00;58.20;;;;;;4993077;28;20065;-77
2021/05/04 10:11:22;;;;;;;2.10;2.00;;;15.80;50.40;;;;;;5026655;28;20402;-78
2021/05/04 10:13:54;;;;;;;3.20;2.50;;;15.40;49.20;;;;;;5011644;28;20412;-78
2021/05/04 10:16:31;;;;;;;2.20;1.70;;;15.60;49.90;;;;;;5010836;28;20046;-76
2021/05/04 10:19:00;;;;;;;2.05;1.92;;;15.80;56.80;;;;;;5011137;28;20053;-76
2021/05/04 10:21:29;;;;;;;1.90;1.80;;;15.90;55.80;;;;;;5004627;28;20058;-77
2021/05/04 10:23:56;;;;;;;2.80;2.00;;;15.80;50.60;;;;;;5010522;28;21045;-77
2021/05/04 10:26:29;;;;;;;4.75;2.47;;;15.80;50.80;;;;;;5011928;28;20049;-77
2021/05/04 10:29:05;;;;;;;1.77;1.67;;;15.80;59.10;;;;;;5012359;28;20069;-78
2021/05/04 10:31:44;;;;;;;3.10;2.22;;;15.90;48.30;;;;;;5011345;28;20045;-74
2021/05/04 10:34:34;;;;;;;2.03;1.80;;;16.00;57.30;;;;;;5012736;28;20061;-76
2021/05/04 10:37:13;;;;;;;3.90;2.53;;;16.40;57.60;;;;;;4987060;28;20482;-76
2021/05/04 10:39:42;;;;;;;3.53;2.35;;;16.70;58.20;;;;;;4991024;28;20129;-78
2021/05/04 10:42:29;;;;;;;3.08;2.78;;;16.90;54.80;;;;;;4992150;28;20061;-76
2021/05/04 10:44:57;;;;;;;9.23;2.33;;;16.30;52.10;;;;;;4976787;28;20053;-76
2021/05/04 10:47:43;;;;;;;2.90;1.77;;;16.10;47.20;;;;;;5011869;28;20058;-76
2021/05/04 10:50:27;;;;;;;1.70;1.60;;;16.10;46.90;;;;;;5012283;28;20468;-75
2021/05/04 10:53:07;;;;;;;1.80;1.70;;;16.40;56.40;;;;;;5010089;28;20391;-76
2021/05/04 10:55:53;;;;;;;2.92;1.85;;;16.50;52.70;;;;;;5012180;28;20050;-77
2021/05/04 10:58:21;;;;;;;1.60;1.50;;;16.50;45.90;;;;;;5003711;28;20471;-75
2021/05/04 11:00:48;;;;;;;4.00;2.10;;;16.40;48.30;;;;;;5012301;28;20057;-75
2021/05/04 11:03:34;;;;;;;2.03;1.92;;;16.40;47.00;;;;;;5011495;28;20042;-75
2021/05/04 11:06:29;;;;;;;2.50;2.17;;;16.50;53.10;;;;;;5012019;28;20064;-76
2021/05/04 11:08:57;;;;;;;1.95;1.80;;;16.30;49.50;;;;;;4952971;28;20050;-76
2021/05/04 11:11:29;;;;;;;1.52;1.45;;;16.40;49.50;;;;;;5011093;28;20057;-75
2021/05/04 11:14:02;;;;;;;1.92;1.70;;;16.40;51.80;;;;;;5012152;28;20058;-76
2021/05/04 11:16:34;;;;;;;29.27;3.35;;;16.50;53.40;;;;;;5009988;28;20046;-75
2021/05/04 11:19:06;;;;;;;2.05;1.85;;;16.50;55.90;;;;;;5010325;28;20045;-75
2021/05/04 11:21:45;;;;;;;1.80;1.70;;;16.30;51.60;;;;;;5011594;28;20060;-75
2021/05/04 11:24:21;;;;;;;5.32;2.70;;;16.50;51.60;;;;;;5011521;28;20049;-73
2021/05/04 11:27:16;;;;;;;3.78;1.52;;;16.70;51.00;;;;;;4993340;28;20049;-72
2021/05/04 11:29:47;;;;;;;1.75;1.65;;;16.80;56.60;;;;;;5011986;28;20076;-74
2021/05/04 11:32:24;;;;;;;2.63;2.28;;;17.20;48.10;;;;;;5006950;28;20487;-72
2021/05/04 11:34:58;;;;;;;1.67;1.58;;;16.80;45.80;;;;;;4976472;28;20053;-73
2021/05/04 11:37:29;;;;;;;8.73;2.95;;;16.80;47.30;;;;;;5011651;28;20046;-76
2021/05/04 11:39:59;;;;;;;2.00;1.73;;;16.60;48.10;;;;;;5010984;28;20049;-75
2021/05/04 11:42:36;;;;;;;10.07;3.15;;;16.50;52.30;;;;;;5011118;28;20046;-75
2021/05/04 11:45:05;;;;;;;2.13;1.48;;;16.60;55.40;;;;;;5011552;28;20054;-75
2021/05/04 11:47:34;;;;;;;3.75;2.95;;;17.00;53.20;;;;;;5010836;28;20050;-76
2021/05/04 11:50:34;;;;;;;3.53;2.47;;;17.20;51.70;;;;;;5010700;28;20072;-76
2021/05/04 11:53:04;;;;;;;4.07;1.70;;;16.70;45.40;;;;;;4960104;28;20046;-76
2021/05/04 11:55:39;;;;;;;3.47;1.92;;;16.50;46.00;;;;;;5010850;28;20057;-75
2021/05/04 11:58:09;;;;;;;1.95;1.73;;;16.50;46.50;;;;;;5011168;28;20061;-76
2021/05/04 12:00:38;;;;;;;6.03;1.88;;;16.80;49.30;;;;;;5009950;28;20482;-79
2021/05/04 12:03:10;;;;;;;1.65;1.55;;;16.90;44.20;;;;;;5010682;28;20049;-75
2021/05/04 12:05:38;;;;;;;3.00;2.05;;;17.20;47.90;;;;;;5009681;28;20756;-75
2021/05/04 12:08:07;;;;;;;2.70;1.90;;;17.10;47.70;;;;;;5010506;28;20065;-76
2021/05/04 12:10:46;;;;;;;4.75;2.40;;;17.10;53.70;;;;;;5010093;28;20064;-77
2021/05/04 12:13:31;;;;;;;5.00;2.30;;;16.90;46.30;;;;;;5010783;28;20128;-77
2021/05/04 12:16:02;;;;;;;1.40;1.30;;;16.70;44.40;;;;;;5010294;28;20050;-76
2021/05/04 12:18:32;;;;;;;7.15;1.63;;;16.60;48.70;;;;;;5010503;28;20060;-77
2021/05/04 12:21:01;;;;;;;2.25;1.55;;;16.60;48.20;;;;;;4993587;28;20050;-77
2021/05/04 12:23:33;;;;;;;1.75;1.65;;;16.90;57.20;;;;;;4990755;28;20038;-77
2021/05/04 12:26:03;;;;;;;3.72;2.15;;;16.80;50.60;;;;;;4989936;28;20503;-76
2021/05/04 12:28:35;;;;;;;4.93;1.70;;;16.70;46.90;;;;;;5010618;28;20046;-76
2021/05/04 12:31:07;;;;;;;1.98;1.42;;;16.70;50.30;;;;;;5010143;28;20054;-77
2021/05/04 12:33:36;;;;;;;5.22;1.60;;;16.60;50.20;;;;;;5010966;28;20507;-77
2021/05/04 12:36:11;;;;;;;4.30;1.73;;;16.60;45.10;;;;;;5010133;28;20510;-77
2021/05/04 12:41:20;;;;;;;1.90;1.80;;;16.30;49.60;;;;;;5011031;28;20053;-76
2021/05/04 12:44:08;;;;;;;;;;;16.50;52.00;;;;;;5008730;28;20424;-76
2021/05/04 12:46:44;;;;;;;2.55;2.00;;;16.50;49.70;;;;;;5009888;28;19925;-77
2021/05/04 12:49:12;;;;;;;1.77;1.55;;;16.30;51.50;;;;;;5010459;28;20398;-77
2021/05/04 12:51:51;;;;;;;1.58;1.27;;;16.60;53.90;;;;;;5009775;28;20046;-78
2021/05/04 12:54:21;;;;;;;1.58;1.30;;;16.50;48.00;;;;;;5010349;28;20082;-77
2021/05/04 12:56:51;;;;;;;2.10;1.90;;;16.50;52.30;;;;;;5008733;28;20076;-77
2021/05/04 12:59:29;;;;;;;2.00;1.90;;;16.50;48.30;;;;;;4989354;28;20416;-77
2021/05/04 13:02:04;;;;;;;2.38;2.17;;;16.70;56.10;;;;;;4990589;28;20061;-76
2021/05/04 13:04:42;;;;;;;4.18;1.73;;;17.00;60.50;;;;;;4990278;28;20045;-78
2021/05/04 13:07:36;;;;;;;1.58;1.45;;;17.30;50.10;;;;;;4990267;28;20050;-77
2021/05/04 13:10:53;;;;;;;2.00;1.90;;;17.20;51.10;;;;;;4990340;28;20408;-77
2021/05/04 13:30:31;;;;;;;2.22;2.00;;;17.00;56.70;;;;;;5033571;28;20057;-78
2021/05/04 13:33:03;;;;;;;4.10;2.15;;;16.70;48.50;;;;;;5030985;28;20046;-77
2021/05/04 13:35:35;;;;;;;1.60;1.50;;;16.40;48.60;;;;;;5033038;28;20675;-77
2021/05/04 13:49:02;;;;;;;4.32;2.53;;;16.10;50.30;;;;;;5015677;28;20060;-76